createdAt,value
2023-10-23T00:00:24.606Z,13.21
2023-10-23T00:03:13.806Z,13.17
2023-10-23T00:05:42.961Z,13.12
2023-10-23T00:08:11.849Z,13.07
2023-10-23T00:10:41.016Z,13.01
2023-10-23T00:13:10.466Z,12.96
2023-10-23T00:15:38.932Z,12.91
2023-10-23T00:18:07.424Z,12.92
2023-10-23T00:20:36.265Z,12.92
2023-10-23T00:23:04.765Z,12.93
2023-10-23T00:25:34.160Z,12.94
2023-10-23T00:28:04.092Z,13.05
2023-10-23T00:30:37.436Z,13.24
2023-10-23T00:33:06.042Z,13.38
2023-10-23T00:35:35.660Z,13.53
2023-10-23T00:38:04.514Z,13.60
2023-10-23T00:40:34.160Z,13.62
2023-10-23T00:43:20.106Z,13.64
2023-10-23T00:45:52.840Z,13.64
2023-10-23T00:48:22.971Z,13.63
2023-10-23T00:50:52.801Z,13.69
2023-10-23T00:53:29.690Z,13.78
2023-10-23T00:56:00.056Z,13.83
2023-10-23T00:58:29.123Z,13.85
2023-10-23T01:00:59.674Z,13.87
2023-10-23T01:03:28.428Z,13.90
2023-10-23T01:05:57.576Z,13.90
2023-10-23T01:08:26.677Z,13.86
2023-10-23T01:10:57.163Z,13.83
2023-10-23T01:13:27.581Z,13.80
2023-10-23T01:15:56.247Z,13.79
2023-10-23T01:18:24.714Z,13.84
2023-10-23T01:20:53.387Z,13.94
2023-10-23T01:23:27.259Z,14.06
2023-10-23T01:25:56.127Z,14.19
2023-10-23T01:28:24.602Z,14.25
2023-10-23T01:30:52.965Z,14.24
2023-10-23T01:33:21.563Z,14.20
2023-10-23T01:35:50.110Z,14.13
2023-10-23T01:38:19.715Z,14.04
2023-10-23T01:40:48.396Z,13.95
2023-10-23T01:43:18.050Z,13.90
2023-10-23T01:45:46.474Z,13.91
2023-10-23T01:48:15.273Z,13.94
2023-10-23T01:50:43.882Z,13.94
2023-10-23T01:53:12.352Z,13.96
2023-10-23T01:55:40.931Z,14.05
2023-10-23T01:58:09.542Z,14.09
2023-10-23T02:00:38.068Z,14.16
2023-10-23T02:03:06.984Z,14.23
2023-10-23T02:05:36.078Z,14.31
2023-10-23T02:08:05.693Z,14.40
2023-10-23T02:10:34.036Z,14.47
2023-10-23T02:13:03.290Z,14.46
2023-10-23T02:15:31.889Z,14.41
2023-10-23T02:18:00.378Z,14.36
2023-10-23T02:20:30.240Z,14.21
2023-10-23T02:22:59.055Z,13.96
2023-10-23T02:25:27.617Z,13.84
2023-10-23T02:27:58.196Z,13.74
2023-10-23T02:30:27.056Z,13.67
2023-10-23T02:32:55.777Z,13.60
2023-10-23T02:35:24.235Z,13.54
2023-10-23T02:37:53.355Z,13.51
2023-10-23T02:40:23.372Z,13.48
2023-10-23T02:42:52.043Z,13.48
2023-10-23T02:45:20.722Z,13.49
2023-10-23T02:47:49.520Z,13.53
2023-10-23T02:50:18.206Z,13.57
2023-10-23T02:52:47.051Z,13.63
2023-10-23T02:55:16.082Z,13.74
2023-10-23T02:57:44.777Z,13.88
2023-10-23T03:00:16.805Z,14.05
2023-10-23T03:02:45.960Z,14.14
2023-10-23T03:05:15.737Z,14.08
2023-10-23T03:07:44.697Z,13.96
2023-10-23T03:10:13.374Z,13.84
2023-10-23T03:12:41.906Z,13.71
2023-10-23T03:15:10.996Z,13.62
2023-10-23T03:17:40.179Z,13.66
2023-10-23T03:20:10.302Z,13.73
2023-10-23T03:22:39.469Z,13.78
2023-10-23T03:25:09.574Z,13.72
2023-10-23T03:27:38.202Z,13.61
2023-10-23T03:30:07.755Z,13.50
2023-10-23T03:32:36.735Z,13.40
2023-10-23T03:35:06.032Z,13.31
2023-10-23T03:37:34.499Z,13.22
2023-10-23T03:40:02.899Z,13.13
2023-10-23T03:42:32.549Z,13.03
2023-10-23T03:45:02.440Z,12.94
2023-10-23T03:47:30.965Z,12.91
2023-10-23T03:49:59.388Z,12.89
2023-10-23T03:52:28.302Z,12.89
2023-10-23T03:54:56.731Z,12.91
2023-10-23T03:57:25.384Z,12.92
2023-10-23T03:59:54.793Z,12.92
2023-10-23T04:02:23.034Z,12.92
2023-10-23T04:04:51.540Z,12.89
2023-10-23T04:07:20.002Z,12.93
2023-10-23T04:09:48.424Z,13.15
2023-10-23T04:12:16.992Z,13.40
2023-10-23T04:14:48.674Z,13.57
2023-10-23T04:17:17.210Z,13.70
2023-10-23T04:19:49.654Z,13.77
2023-10-23T04:22:17.959Z,13.78
2023-10-23T04:24:48.860Z,13.75
2023-10-23T04:27:17.597Z,13.66
2023-10-23T04:29:46.373Z,13.54
2023-10-23T04:32:15.075Z,13.43
2023-10-23T04:34:43.676Z,13.35
2023-10-23T04:37:12.240Z,13.23
2023-10-23T04:39:41.174Z,13.20
2023-10-23T04:42:09.709Z,13.21
2023-10-23T04:44:38.186Z,13.24
2023-10-23T04:47:06.870Z,13.28
2023-10-23T04:49:35.248Z,13.29
2023-10-23T04:52:04.320Z,13.25
2023-10-23T04:54:32.954Z,13.28
2023-10-23T04:57:01.614Z,13.42
2023-10-23T04:59:30.211Z,13.49
2023-10-23T05:01:58.917Z,13.55
2023-10-23T05:04:34.296Z,13.56
2023-10-23T05:07:03.519Z,13.57
2023-10-23T05:09:33.401Z,13.55
2023-10-23T05:12:02.887Z,13.54
2023-10-23T05:14:38.783Z,13.51
2023-10-23T05:17:09.820Z,13.47
2023-10-23T05:19:38.829Z,13.41
2023-10-23T05:22:07.321Z,13.37
2023-10-23T05:24:35.624Z,13.33
2023-10-23T05:27:04.589Z,13.32
2023-10-23T05:29:33.259Z,13.36
2023-10-23T05:32:01.751Z,13.40
2023-10-23T05:34:30.968Z,13.40
2023-10-23T05:36:59.393Z,13.43
2023-10-23T05:39:28.496Z,13.49
2023-10-23T05:41:57.447Z,13.55
2023-10-23T05:44:29.524Z,13.65
2023-10-23T05:46:59.598Z,13.71
2023-10-23T05:49:29.442Z,13.75
2023-10-23T05:51:58.340Z,13.78
2023-10-23T05:54:27.002Z,13.81
2023-10-23T05:56:55.153Z,13.85
2023-10-23T05:59:23.572Z,13.88
2023-10-23T06:01:52.281Z,13.92
2023-10-23T06:04:20.676Z,13.97
2023-10-23T06:06:49.421Z,14.01
2023-10-23T06:09:18.119Z,14.05
2023-10-23T06:11:46.999Z,14.08
2023-10-23T06:14:15.178Z,14.09
2023-10-23T06:16:43.636Z,14.11
2023-10-23T06:19:12.231Z,14.12
2023-10-23T06:21:40.621Z,14.12
2023-10-23T06:24:09.286Z,14.12
2023-10-23T06:26:37.561Z,14.13
2023-10-23T06:29:06.324Z,14.15
2023-10-23T06:31:34.904Z,14.16
2023-10-23T06:34:03.408Z,14.16
2023-10-23T06:36:33.307Z,14.13
2023-10-23T06:39:01.884Z,14.13
2023-10-23T06:41:31.810Z,14.11
2023-10-23T06:44:00.293Z,14.10
2023-10-23T06:46:28.962Z,14.12
2023-10-23T06:48:57.958Z,14.11
2023-10-23T06:51:26.429Z,14.13
2023-10-23T06:53:55.161Z,14.15
2023-10-23T06:56:23.741Z,14.15
2023-10-23T06:58:52.280Z,14.17
2023-10-23T07:01:30.391Z,14.17
2023-10-23T07:04:07.859Z,14.14
2023-10-23T07:06:37.195Z,14.13
2023-10-23T07:09:06.132Z,14.12
2023-10-23T07:11:34.569Z,14.11
2023-10-23T07:14:03.170Z,14.08
2023-10-23T07:16:31.869Z,14.05
2023-10-23T07:19:00.461Z,14.03
2023-10-23T07:21:28.798Z,13.99
2023-10-23T07:27:40.475Z,13.96
2023-10-23T07:30:09.421Z,13.94
2023-10-23T07:32:38.010Z,13.94
2023-10-23T07:35:09.405Z,13.95
2023-10-23T07:37:39.452Z,13.96
2023-10-23T07:40:08.687Z,13.97
2023-10-23T07:42:37.071Z,13.98
2023-10-23T07:45:06.767Z,13.97
2023-10-23T07:47:35.276Z,13.98
2023-10-23T07:50:06.095Z,14.02
2023-10-23T07:52:34.236Z,14.07
2023-10-23T07:55:02.932Z,14.12
2023-10-23T07:57:31.484Z,14.19
2023-10-23T08:00:00.071Z,14.28
2023-10-23T08:02:28.734Z,14.36
2023-10-23T08:04:57.421Z,14.45
2023-10-23T08:07:26.326Z,14.55
2023-10-23T08:09:55.043Z,14.64
2023-10-23T08:12:23.326Z,14.75
2023-10-23T08:14:52.473Z,14.86
2023-10-23T08:17:41.396Z,14.98
2023-10-23T08:20:10.984Z,15.04
2023-10-23T08:22:39.552Z,15.08
2023-10-23T08:25:08.663Z,15.16
2023-10-23T08:27:37.043Z,15.25
2023-10-23T08:30:06.413Z,15.34
2023-10-23T08:32:49.637Z,15.42
2023-10-23T08:35:21.428Z,15.50
2023-10-23T08:37:49.947Z,15.58
2023-10-23T08:40:18.703Z,15.65
2023-10-23T08:42:47.928Z,15.71
2023-10-23T08:45:17.895Z,15.79
2023-10-23T08:47:47.856Z,15.89
2023-10-23T08:50:17.200Z,16.00
2023-10-23T08:52:50.869Z,16.09
2023-10-23T08:55:21.123Z,16.19
2023-10-23T08:57:54.402Z,16.32
2023-10-23T09:00:26.391Z,16.46
2023-10-23T09:02:56.266Z,16.61
2023-10-23T09:26:29.419Z,17.68
2023-10-23T09:28:58.369Z,17.78
2023-10-23T09:31:25.607Z,17.87
2023-10-23T09:33:52.898Z,17.99
2023-10-23T09:36:21.386Z,18.01
2023-10-23T09:38:59.948Z,18.10
2023-10-23T09:41:29.351Z,18.20
2023-10-23T09:43:58.214Z,18.31
2023-10-23T09:46:29.521Z,18.35
2023-10-23T09:49:01.428Z,18.42
2023-10-23T09:51:32.762Z,18.47
2023-10-23T09:54:07.371Z,18.48
2023-10-23T09:56:35.723Z,18.50
2023-10-23T09:59:08.708Z,18.50
2023-10-23T10:01:44.096Z,18.48
2023-10-23T10:04:24.079Z,18.47
2023-10-23T10:07:06.394Z,18.51
2023-10-23T10:09:38.503Z,18.46
2023-10-23T10:12:11.173Z,18.52
2023-10-23T10:14:42.381Z,18.57
2023-10-23T10:17:11.958Z,18.54
2023-10-23T10:19:41.365Z,18.52
2023-10-23T10:22:20.996Z,18.52
2023-10-23T10:24:49.673Z,18.53
2023-10-23T10:27:17.442Z,18.52
2023-10-23T10:29:45.950Z,18.56
2023-10-23T10:32:15.594Z,18.58
2023-10-23T10:34:46.640Z,18.56
2023-10-23T10:39:53.333Z,18.59
2023-10-23T10:42:29.877Z,18.64
2023-10-23T10:45:08.606Z,18.66
2023-10-23T10:47:42.406Z,18.68
2023-10-23T10:50:11.219Z,18.73
2023-10-23T10:52:40.222Z,18.75
2023-10-23T10:55:09.999Z,18.75
2023-10-23T10:57:47.535Z,18.82
2023-10-23T11:00:15.887Z,18.94
2023-10-23T11:02:43.337Z,19.00
2023-10-23T11:05:13.480Z,19.06
2023-10-23T11:07:41.675Z,19.12
2023-10-23T11:10:10.246Z,19.17
2023-10-23T11:12:39.678Z,19.26
2023-10-23T11:15:07.708Z,19.37
2023-10-23T11:17:37.244Z,19.47
2023-10-23T11:20:09.279Z,19.48
2023-10-23T11:22:39.289Z,19.47
2023-10-23T11:25:09.792Z,19.45
2023-10-23T11:27:37.997Z,19.44
2023-10-23T11:30:07.085Z,19.52
2023-10-23T11:32:35.101Z,19.57
2023-10-23T11:35:05.828Z,19.60
2023-10-23T11:37:38.049Z,19.59
2023-10-23T11:40:07.647Z,19.58
2023-10-23T11:42:50.278Z,19.55
2023-10-23T11:45:18.435Z,19.50
2023-10-23T11:47:46.757Z,19.53
2023-10-23T11:50:14.944Z,19.54
2023-10-23T11:52:48.492Z,19.55
2023-10-23T11:55:17.108Z,19.56
2023-10-23T11:57:51.329Z,19.52
2023-10-23T12:00:21.178Z,19.53
2023-10-23T12:02:48.992Z,19.56
2023-10-23T12:05:18.980Z,19.55
2023-10-23T12:07:48.116Z,19.60
2023-10-23T12:10:19.798Z,19.61
2023-10-23T12:12:48.367Z,19.58
2023-10-23T12:15:16.395Z,19.57
2023-10-23T12:17:43.777Z,19.57
2023-10-23T12:20:12.591Z,19.60
2023-10-23T12:22:45.368Z,19.60
2023-10-23T12:25:14.172Z,19.60
2023-10-23T12:27:42.079Z,19.58
2023-10-23T12:30:15.039Z,19.62
2023-10-23T12:33:16.249Z,19.66
2023-10-23T12:35:31.032Z,19.70
2023-10-23T12:37:58.942Z,19.71
2023-10-23T12:40:30.264Z,19.73
2023-10-23T12:43:00.710Z,19.76
2023-10-23T12:45:27.874Z,19.76
2023-10-23T12:47:55.049Z,19.79
2023-10-23T12:50:22.126Z,19.77
2023-10-23T12:52:49.681Z,19.77
2023-10-23T21:26:35.015Z,11.83
2023-10-23T21:29:20.193Z,11.74
2023-10-23T21:31:50.679Z,11.69
2023-10-23T21:34:20.608Z,11.66
2023-10-23T21:36:49.442Z,11.62
2023-10-23T21:39:17.810Z,11.58
2023-10-23T21:41:47.135Z,11.55
2023-10-23T21:44:15.505Z,11.52
2023-10-23T21:46:43.932Z,11.47
2023-10-23T21:49:12.839Z,11.42
2023-10-23T21:51:42.390Z,11.38
2023-10-23T21:54:11.711Z,11.35
2023-10-23T21:57:21.049Z,11.36
2023-10-23T21:59:30.030Z,11.35
2023-10-23T22:01:58.910Z,11.34
2023-10-23T22:04:27.957Z,11.31
2023-10-23T22:06:57.233Z,11.29
2023-10-23T22:09:27.246Z,11.28
2023-10-23T22:11:56.211Z,11.27
2023-10-23T22:14:25.113Z,11.25
2023-10-23T22:16:53.719Z,11.23
2023-10-23T22:19:22.396Z,11.20
2023-10-23T22:21:50.812Z,11.17
2023-10-23T22:24:19.228Z,11.12
2023-10-23T22:26:48.284Z,11.08
2023-10-23T22:29:16.823Z,11.04
2023-10-23T22:31:45.646Z,10.98
2023-10-23T22:34:14.382Z,10.95
2023-10-23T22:36:43.013Z,10.89
2023-10-23T22:39:12.074Z,10.86
2023-10-23T22:41:41.692Z,10.82
2023-10-23T22:44:11.191Z,10.76
2023-10-23T22:46:39.484Z,10.72
2023-10-23T22:49:08.220Z,10.67
2023-10-23T22:51:37.708Z,10.65
2023-10-23T22:54:07.266Z,10.60
2023-10-23T22:56:37.382Z,10.57
2023-10-23T22:59:06.581Z,10.55
2023-10-23T23:01:36.449Z,10.52
2023-10-23T23:04:05.690Z,10.49
2023-10-23T23:06:35.449Z,10.47
2023-10-23T23:09:05.286Z,10.45
2023-10-23T23:11:34.247Z,10.43
2023-10-23T23:14:03.620Z,10.38
2023-10-23T23:16:37.225Z,10.35
2023-10-23T23:19:11.954Z,10.30
2023-10-23T23:21:46.642Z,10.22
2023-10-23T23:24:15.233Z,10.17
2023-10-23T23:26:43.839Z,10.14
2023-10-23T23:29:12.224Z,10.10
2023-10-23T23:31:40.995Z,10.05
2023-10-23T23:34:09.773Z,10.03
2023-10-23T23:36:38.578Z,10.02
2023-10-23T23:39:06.989Z,10.01
2023-10-23T23:41:35.340Z,9.98
2023-10-23T23:44:04.062Z,9.95
2023-10-23T23:46:32.380Z,9.91
2023-10-23T23:49:01.076Z,9.87
2023-10-23T23:51:29.859Z,9.83
2023-10-23T23:53:58.459Z,9.82
2023-10-23T23:56:27.026Z,9.81
2023-10-23T23:58:55.485Z,9.82
